Eagle Lake, Minnesota
Current Conditions -  °F | °C
As of 11:55 AM on Friday 21 Nov 2014 (Local Time) from KMKT Reporting Station
Clear Clear  
Wind Chill: 11°   Ceiling: Unl
Heat Index: 25°   Visibility: 10mi
Dew Point: 14°   Wind: 20mph
Humidity: 64%   Direction: 180°S
Pressure: 30.1"   Gusts: 26mph
Location:  44.16°N, 93.88°W
Report Text: KMKT 211755Z AUTO 18017G23KT 10SM CLR M04/M10 A3010 RMK AO1 11040 21130 57024
Loading
Personal Weather Stations






























Interactive Weather Map New forecast layout! Learn more

10-Day Weather Forecast

Advertisements
Track Severe Weather on mobile